Alta Floresta Airport

Airport
ICAO code: 
SBAT
IATA Code: 
AFL
Summary
ICAO Region: 
CARSAM
Territory: 
Location: 
Alta Floresta, Mato Grosso
Serving: 
Alta Floresta
Elevation: 
947 ft
Coordinates: 
Aerial View: 
9° 51' 59.004" S, 56° 6' 18" W
Metar
Observation
SBAT 011500Z 36005KT 9999 BKN010 OVC090 27/24 Q1014
Station
Alta Floresta Aeroporto
Date/Time
2021-12-01 15:00:00
Wind direction
360°
Wind speed
05 kts
Lowest cloud amount
broken clouds
Temperature
27°C
Dew point
24°C
Humidity
83%
QNH
1014 hPa
Weather condition
n/a

Piloto Osvaldo Marques Dias Airport is the airport serving Alta Floresta, Brazil.

Climatology

Tropical savanna climate (Köppen climate classification Aw)

Runways

Designator Length Width Surface Rops
3/21 2500 30 ASP No/No
Airport map: 
Aerial View: 

SKYbrary Partners:

Safety knowledge contributed by: